Time;durP1;ratioP1;P1;durP2;ratioP2;P2;SDS_P1;SDS_P2;PMS_P1;PMS_P2;Temp;Humidity;BMP_temperature;BMP_pressure;BME280_temperature;BME280_humidity;BME280_pressure;Samples;Min_cycle;Max_cycle;Signal;HPM_P1;HPM_P2
2021/08/28 00:01:23;;;;;;;8.77;8.07;;;14.50;99.90;;;;;;4927303;29;20259;-79
2021/08/28 00:03:50;;;;;;;8.73;8.13;;;14.50;99.90;;;;;;4926236;29;20211;-79
2021/08/28 00:06:18;;;;;;;8.83;8.13;;;14.50;99.90;;;;;;4927255;29;20198;-79
2021/08/28 00:08:45;;;;;;;8.40;7.80;;;14.50;99.90;;;;;;4926678;29;20275;-79
2021/08/28 00:11:12;;;;;;;9.00;8.30;;;14.50;99.90;;;;;;4923152;29;20249;-78
2021/08/28 00:13:40;;;;;;;8.60;8.00;;;14.40;99.90;;;;;;4925044;29;20210;-79
2021/08/28 00:16:07;;;;;;;8.40;7.80;;;14.40;99.90;;;;;;4927476;29;20230;-79
2021/08/28 00:18:33;;;;;;;8.60;8.00;;;14.40;99.90;;;;;;4925495;29;20627;-78
2021/08/28 00:21:00;;;;;;;9.37;8.67;;;14.40;99.90;;;;;;4927341;29;20202;-79
2021/08/28 00:23:28;;;;;;;8.97;8.27;;;14.40;99.90;;;;;;4926641;29;20207;-79
2021/08/28 00:25:55;;;;;;;8.80;8.20;;;14.40;99.90;;;;;;4918225;29;20634;-79
2021/08/28 00:28:22;;;;;;;9.43;8.73;;;14.40;99.90;;;;;;4918452;29;20211;-79
2021/08/28 00:30:49;;;;;;;9.13;8.40;;;14.40;99.90;;;;;;4930792;29;20207;-79
2021/08/28 00:33:17;;;;;;;9.37;8.50;;;14.40;99.90;;;;;;4923533;29;20247;-79
2021/08/28 00:35:44;;;;;;;9.57;8.83;;;14.40;99.90;;;;;;4924925;29;20231;-79
2021/08/28 00:38:11;;;;;;;8.87;8.10;;;14.40;99.90;;;;;;4924799;29;20203;-77
2021/08/28 00:40:40;;;;;;;8.50;7.90;;;14.40;99.90;;;;;;4925456;29;20632;-79
2021/08/28 00:43:07;;;;;;;8.80;8.20;;;14.40;99.90;;;;;;4925095;29;20211;-79
2021/08/28 00:45:36;;;;;;;8.67;8.07;;;14.40;99.90;;;;;;4923524;29;20230;-79
2021/08/28 00:48:05;;;;;;;8.40;7.80;;;14.40;99.90;;;;;;4926978;29;20234;-79
2021/08/28 00:50:33;;;;;;;9.23;8.53;;;14.30;99.90;;;;;;4922887;29;20216;-79
2021/08/28 00:53:01;;;;;;;9.30;8.50;;;14.30;99.90;;;;;;4925121;29;20262;-79
2021/08/28 00:55:28;;;;;;;8.63;8.03;;;14.20;99.90;;;;;;4924206;29;20321;-79
2021/08/28 00:57:58;;;;;;;9.10;8.43;;;14.20;99.90;;;;;;4925437;29;20199;-79
2021/08/28 01:00:25;;;;;;;9.20;8.50;;;14.20;99.90;;;;;;4922899;29;20204;-79
2021/08/28 01:02:53;;;;;;;9.33;8.63;;;14.20;99.90;;;;;;4929244;29;20205;-79
2021/08/28 01:05:22;;;;;;;9.40;8.70;;;14.20;99.90;;;;;;4930309;29;20303;-79
2021/08/28 01:08:08;;;;;;;8.90;8.30;;;14.20;99.90;;;;;;4916927;29;20203;-79
2021/08/28 01:11:00;;;;;;;9.27;8.57;;;14.20;99.90;;;;;;4918487;29;20242;-79
2021/08/28 01:13:41;;;;;;;9.33;8.53;;;14.20;99.90;;;;;;4927211;29;20762;-79
2021/08/28 01:16:10;;;;;;;8.87;8.23;;;14.20;99.90;;;;;;4923811;29;20207;-79
2021/08/28 01:18:40;;;;;;;8.70;8.10;;;14.20;99.90;;;;;;4926860;29;20214;-79
2021/08/28 01:21:15;;;;;;;9.23;8.53;;;14.20;99.90;;;;;;4927047;29;20696;-79
2021/08/28 01:24:03;;;;;;;9.10;8.50;;;14.10;99.90;;;;;;4919981;29;20227;-79
2021/08/28 01:26:55;;;;;;;9.40;8.60;;;14.20;99.90;;;;;;4916797;29;20303;-79
2021/08/28 01:29:29;;;;;;;8.83;8.23;;;14.20;99.90;;;;;;4915325;29;20231;-79
2021/08/28 01:31:57;;;;;;;9.03;8.27;;;14.20;99.90;;;;;;4918574;29;20204;-79
2021/08/28 01:34:25;;;;;;;9.30;8.60;;;14.20;99.90;;;;;;4925349;29;20608;-79
2021/08/28 01:36:53;;;;;;;9.17;8.47;;;14.20;99.90;;;;;;4921973;29;20235;-79
2021/08/28 01:39:42;;;;;;;9.10;8.40;;;14.20;99.90;;;;;;4925881;29;20289;-79
2021/08/28 01:42:10;;;;;;;6.07;5.57;;;14.10;99.90;;;;;;4925747;29;20217;-79
2021/08/28 01:44:39;;;;;;;9.03;8.33;;;14.10;99.90;;;;;;4916870;29;20228;-79
2021/08/28 01:47:08;;;;;;;6.00;4.90;;;14.00;99.90;;;;;;4919410;29;20207;-77
2021/08/28 01:49:40;;;;;;;6.03;5.57;;;14.00;99.90;;;;;;4924149;29;20299;-79
2021/08/28 01:52:07;;;;;;;9.73;9.03;;;14.00;99.90;;;;;;4925068;29;20213;-79
2021/08/28 01:54:37;;;;;;;4.27;3.87;;;14.00;99.90;;;;;;4925166;29;20234;-79
2021/08/28 01:57:04;;;;;;;7.43;5.77;;;14.00;99.90;;;;;;4925203;29;20229;-78
2021/08/28 01:59:32;;;;;;;4.63;3.97;;;14.00;99.90;;;;;;4927408;29;20209;-79
2021/08/28 02:02:19;;;;;;;4.10;3.70;;;14.00;99.90;;;;;;4927661;29;20218;-79
2021/08/28 02:04:55;;;;;;;8.23;4.83;;;14.00;99.90;;;;;;4915606;29;20273;-79
2021/08/28 02:07:35;;;;;;;4.93;3.77;;;14.00;99.90;;;;;;4914466;29;20644;-79
2021/08/28 02:10:11;;;;;;;4.73;3.93;;;14.00;99.90;;;;;;4922958;29;20627;-79
2021/08/28 02:12:41;;;;;;;5.20;4.53;;;14.00;99.90;;;;;;4925479;29;20752;-79
2021/08/28 02:15:15;;;;;;;7.47;4.40;;;14.00;99.90;;;;;;4924775;29;20226;-79
2021/08/28 02:17:50;;;;;;;5.23;4.50;;;14.00;99.90;;;;;;4927292;29;20216;-79
2021/08/28 02:20:25;;;;;;;6.20;4.87;;;14.00;99.90;;;;;;4920686;29;20559;-79
2021/08/28 02:23:05;;;;;;;9.17;8.43;;;14.00;99.90;;;;;;4926783;29;20305;-79
2021/08/28 02:25:43;;;;;;;5.00;4.40;;;14.10;99.90;;;;;;4928258;29;20229;-79
2021/08/28 02:28:14;;;;;;;6.27;5.67;;;14.10;99.90;;;;;;4924841;29;20613;-79
2021/08/28 02:30:45;;;;;;;4.90;4.37;;;14.10;99.90;;;;;;4914670;29;20216;-79
2021/08/28 02:33:16;;;;;;;4.60;4.20;;;14.10;99.90;;;;;;4927537;29;20203;-80
2021/08/28 02:35:56;;;;;;;5.27;4.40;;;14.10;99.90;;;;;;4912089;29;20230;-79
2021/08/28 02:38:25;;;;;;;4.93;4.43;;;14.10;99.90;;;;;;4917074;29;20200;-79
2021/08/28 02:40:55;;;;;;;5.93;4.37;;;14.10;99.90;;;;;;4916716;29;20549;-79
2021/08/28 02:43:24;;;;;;;5.83;4.43;;;14.10;99.90;;;;;;4924142;29;20666;-79
2021/08/28 02:45:53;;;;;;;4.80;4.30;;;14.20;99.90;;;;;;4923001;29;20315;-79
2021/08/28 02:48:29;;;;;;;6.57;4.67;;;14.20;99.90;;;;;;4924870;29;20206;-79
2021/08/28 02:51:01;;;;;;;5.80;4.50;;;14.20;99.90;;;;;;4920723;29;20218;-79
2021/08/28 02:53:31;;;;;;;4.80;4.27;;;14.10;99.90;;;;;;4923230;29;20208;-79
2021/08/28 02:55:59;;;;;;;4.63;4.07;;;14.10;99.90;;;;;;4973456;23;20288;-77
2021/08/28 02:58:32;;;;;;;7.00;4.63;;;14.10;99.90;;;;;;4937432;29;20210;-77
2021/08/28 03:01:00;;;;;;;4.43;3.97;;;14.10;99.90;;;;;;4948188;29;20199;-76
2021/08/28 03:03:29;;;;;;;6.13;4.70;;;14.10;99.90;;;;;;4949621;28;20198;-77
2021/08/28 03:05:57;;;;;;;4.93;4.43;;;14.10;99.90;;;;;;4950073;28;20723;-78
2021/08/28 03:08:28;;;;;;;4.50;4.10;;;14.10;99.90;;;;;;4942304;28;20701;-76
2021/08/28 03:10:55;;;;;;;5.07;4.57;;;14.10;99.90;;;;;;4952160;29;20242;-76
2021/08/28 03:13:23;;;;;;;6.50;5.00;;;14.10;99.90;;;;;;4959116;28;20206;-77
2021/08/28 03:15:52;;;;;;;4.90;4.40;;;14.10;99.90;;;;;;4952540;28;20568;-77
2021/08/28 03:18:21;;;;;;;5.20;4.70;;;14.10;99.90;;;;;;4953730;28;20245;-77
2021/08/28 03:20:54;;;;;;;5.10;4.60;;;14.10;99.90;;;;;;4953484;28;20195;-77
2021/08/28 03:23:23;;;;;;;4.87;4.37;;;14.10;99.90;;;;;;4952358;28;20766;-76
2021/08/28 03:25:53;;;;;;;6.17;5.07;;;14.10;99.90;;;;;;4967344;28;20286;-76
2021/08/28 03:28:21;;;;;;;5.90;4.70;;;14.10;99.90;;;;;;4952720;29;20209;-77
2021/08/28 03:30:49;;;;;;;4.97;4.43;;;14.10;99.90;;;;;;4946997;28;20236;-77
2021/08/28 03:33:18;;;;;;;7.57;4.50;;;14.00;99.90;;;;;;4952975;28;20679;-76
2021/08/28 03:35:54;;;;;;;4.73;4.00;;;14.00;99.90;;;;;;4940171;29;20217;-77
2021/08/28 03:38:21;;;;;;;5.10;4.30;;;14.00;99.90;;;;;;4940819;29;20617;-77
2021/08/28 03:40:49;;;;;;;4.73;3.90;;;14.00;99.90;;;;;;4944211;29;20679;-77
2021/08/28 03:43:16;;;;;;;4.73;4.30;;;14.10;99.90;;;;;;4953184;28;20671;-77
2021/08/28 03:45:44;;;;;;;4.67;4.27;;;14.10;99.90;;;;;;4946840;29;20277;-77
2021/08/28 03:48:13;;;;;;;6.20;4.17;;;14.10;99.90;;;;;;4951587;29;20211;-77
2021/08/28 03:50:40;;;;;;;6.53;4.83;;;14.10;99.90;;;;;;4952108;29;20211;-77
2021/08/28 03:53:10;;;;;;;4.73;4.17;;;14.00;99.90;;;;;;4954025;29;20642;-77
2021/08/28 03:55:37;;;;;;;4.87;4.33;;;14.00;99.90;;;;;;4954306;29;20222;-77
2021/08/28 03:58:04;;;;;;;5.60;4.40;;;14.00;99.90;;;;;;4953099;29;20211;-77
2021/08/28 04:00:33;;;;;;;5.00;4.60;;;14.00;99.90;;;;;;4955066;29;20582;-76
2021/08/28 04:03:01;;;;;;;5.87;4.70;;;13.90;99.90;;;;;;4954538;29;20366;-77
2021/08/28 04:05:29;;;;;;;5.87;5.07;;;13.90;99.90;;;;;;4947387;29;20305;-79
2021/08/28 04:07:56;;;;;;;6.27;4.90;;;14.00;99.90;;;;;;4969983;28;20748;-77
2021/08/28 04:10:26;;;;;;;4.87;4.47;;;14.00;99.90;;;;;;4940827;28;20227;-77
2021/08/28 04:12:53;;;;;;;5.73;5.00;;;14.10;99.90;;;;;;4952017;29;20236;-77
2021/08/28 04:15:20;;;;;;;5.77;4.80;;;14.00;99.90;;;;;;4945682;29;20240;-78
2021/08/28 04:18:13;;;;;;;5.30;4.60;;;14.10;99.90;;;;;;4943519;29;20755;-77
2021/08/28 04:20:45;;;;;;;5.43;4.83;;;14.00;99.90;;;;;;4954267;29;20205;-77
2021/08/28 04:23:19;;;;;;;5.37;4.87;;;14.00;99.90;;;;;;4948978;28;20572;-77
2021/08/28 04:26:06;;;;;;;5.47;4.90;;;14.00;99.90;;;;;;4956691;29;20742;-77
2021/08/28 04:28:35;;;;;;;4.87;4.47;;;14.00;99.90;;;;;;4945011;29;20218;-77
2021/08/28 04:31:02;;;;;;;5.60;5.00;;;14.00;99.90;;;;;;4953950;29;20210;-77
2021/08/28 04:33:29;;;;;;;6.37;5.07;;;14.00;99.90;;;;;;4950672;28;20213;-77
2021/08/28 04:35:56;;;;;;;6.37;5.40;;;14.00;99.90;;;;;;4951329;28;20478;-77
2021/08/28 04:38:23;;;;;;;5.97;5.27;;;14.00;99.90;;;;;;4949696;28;20205;-76
2021/08/28 04:40:53;;;;;;;5.40;4.90;;;14.00;99.90;;;;;;4942880;29;20294;-77
2021/08/28 04:43:23;;;;;;;6.50;5.10;;;13.90;99.90;;;;;;4945213;29;20585;-77
2021/08/28 04:46:20;;;;;;;5.43;4.93;;;13.90;99.90;;;;;;4944035;29;20232;-77
2021/08/28 04:48:48;;;;;;;6.17;5.17;;;13.90;99.90;;;;;;4947818;29;20209;-77
2021/08/28 04:51:29;;;;;;;5.50;5.00;;;14.00;99.90;;;;;;4951312;29;20222;-77
2021/08/28 04:53:57;;;;;;;6.53;5.23;;;14.00;99.90;;;;;;4956104;28;20194;-77
2021/08/28 04:56:24;;;;;;;5.37;4.87;;;14.00;99.90;;;;;;4950564;29;20235;-77
2021/08/28 04:58:53;;;;;;;7.93;5.90;;;14.00;99.90;;;;;;4944206;29;20202;-77
2021/08/28 05:01:41;;;;;;;7.30;5.67;;;14.00;99.90;;;;;;4950095;29;20220;-77
2021/08/28 05:04:28;;;;;;;6.27;5.67;;;14.00;99.90;;;;;;4948733;28;20709;-76
2021/08/28 05:06:56;;;;;;;5.70;5.07;;;14.10;99.90;;;;;;4958745;28;20207;-79
2021/08/28 05:09:48;;;;;;;8.07;6.10;;;14.10;99.90;;;;;;4951953;28;20296;-76
2021/08/28 05:12:15;;;;;;;6.40;5.30;;;14.10;99.90;;;;;;4946063;29;20366;-77
2021/08/28 05:14:53;;;;;;;6.73;5.93;;;14.10;99.90;;;;;;4952301;28;20214;-77
2021/08/28 05:17:20;;;;;;;5.90;5.30;;;14.10;99.90;;;;;;4959361;28;20253;-76
2021/08/28 05:19:48;;;;;;;8.27;6.07;;;14.10;99.90;;;;;;4954536;29;20198;-77
2021/08/28 05:22:34;;;;;;;9.50;6.57;;;14.10;99.90;;;;;;4949131;28;20269;-76
2021/08/28 05:25:39;;;;;;;7.00;6.33;;;14.10;99.90;;;;;;4950651;29;20775;-80
2021/08/28 05:28:07;;;;;;;11.70;6.93;;;14.10;99.90;;;;;;4946073;28;20233;-79
2021/08/28 05:30:37;;;;;;;8.97;7.07;;;14.10;99.90;;;;;;4950425;29;20717;-81
2021/08/28 05:33:04;;;;;;;7.03;6.30;;;14.10;99.90;;;;;;4949364;28;20205;-81
2021/08/28 05:35:31;;;;;;;7.73;7.03;;;14.10;99.90;;;;;;4940557;28;20229;-80
2021/08/28 05:38:28;;;;;;;7.67;6.93;;;14.20;99.90;;;;;;4949984;28;20209;-79
2021/08/28 05:40:55;;;;;;;9.87;7.80;;;14.10;99.90;;;;;;4945217;28;20207;-78
2021/08/28 05:43:22;;;;;;;10.10;7.53;;;14.20;99.90;;;;;;4951721;28;20209;-78
2021/08/28 05:46:06;;;;;;;8.07;6.70;;;14.20;99.90;;;;;;4950984;29;20732;-79
2021/08/28 05:48:45;;;;;;;10.17;7.60;;;14.20;99.90;;;;;;4951351;29;20213;-77
2021/08/28 05:51:31;;;;;;;8.80;7.40;;;14.20;99.90;;;;;;4951415;29;20256;-79
2021/08/28 05:53:59;;;;;;;8.93;7.33;;;14.10;99.90;;;;;;4946976;29;20203;-79
2021/08/28 05:56:26;;;;;;;8.30;7.50;;;14.10;99.90;;;;;;4957449;29;20236;-79
2021/08/28 05:58:53;;;;;;;7.80;7.00;;;14.20;99.90;;;;;;4957628;28;20692;-78
2021/08/28 06:01:21;;;;;;;8.67;7.47;;;14.20;99.90;;;;;;4952854;28;20208;-78
2021/08/28 06:03:48;;;;;;;8.30;7.10;;;14.20;99.90;;;;;;4975566;28;20206;-79
2021/08/28 06:06:26;;;;;;;8.40;7.50;;;14.20;99.90;;;;;;4965692;28;20277;-78
2021/08/28 06:09:11;;;;;;;7.80;7.00;;;14.20;99.90;;;;;;4951016;29;20214;-78
2021/08/28 06:12:05;;;;;;;8.10;7.30;;;14.30;99.90;;;;;;4967289;28;20236;-79
2021/08/28 06:14:55;;;;;;;8.80;7.90;;;14.30;99.90;;;;;;4971534;28;20221;-81
2021/08/28 06:17:40;;;;;;;8.87;7.57;;;14.40;99.90;;;;;;4964428;28;20203;-79
2021/08/28 06:20:08;;;;;;;9.20;8.10;;;14.40;99.90;;;;;;4960884;28;20206;-79
2021/08/28 06:22:36;;;;;;;8.30;6.93;;;14.50;99.90;;;;;;4962608;28;20199;-79
2021/08/28 06:25:03;;;;;;;8.53;7.63;;;14.40;99.90;;;;;;4964643;28;20242;-80
2021/08/28 06:27:30;;;;;;;8.53;7.70;;;14.40;99.90;;;;;;4977202;28;20274;-79
2021/08/28 06:29:59;;;;;;;9.90;8.73;;;14.50;99.90;;;;;;4961350;28;20226;-79
2021/08/28 06:32:27;;;;;;;8.70;7.70;;;14.50;99.90;;;;;;4960555;28;20673;-79
2021/08/28 06:34:55;;;;;;;9.50;8.47;;;14.50;99.90;;;;;;4962088;28;20226;-79
2021/08/28 06:37:32;;;;;;;13.23;12.23;;;14.50;99.90;;;;;;4956910;29;20199;-78
2021/08/28 06:40:17;;;;;;;12.67;11.77;;;14.50;99.90;;;;;;4956222;29;20608;-79
2021/08/28 06:43:03;;;;;;;9.00;7.87;;;14.60;99.90;;;;;;4958875;29;20292;-79
2021/08/28 06:45:48;;;;;;;12.70;11.60;;;14.60;99.90;;;;;;4962712;29;20260;-79
2021/08/28 06:48:39;;;;;;;8.00;7.30;;;14.70;99.90;;;;;;4961754;28;20602;-78
2021/08/28 06:51:26;;;;;;;11.30;10.40;;;14.90;99.90;;;;;;4956641;29;20213;-78
2021/08/28 06:54:12;;;;;;;15.60;14.40;;;15.00;99.90;;;;;;4959112;29;20217;-78
2021/08/28 06:57:48;;;;;;;13.50;12.40;;;15.20;99.90;;;;;;4961392;28;20298;-78
2021/08/28 07:00:26;;;;;;;12.27;11.17;;;15.30;99.90;;;;;;4954449;29;20233;-78
2021/08/28 07:03:11;;;;;;;15.73;14.63;;;15.40;99.90;;;;;;4957357;29;20699;-79
2021/08/28 07:05:39;;;;;;;15.03;13.93;;;15.40;99.90;;;;;;4954136;28;20223;-78
2021/08/28 07:08:24;;;;;;;13.43;12.43;;;15.40;99.90;;;;;;4956119;28;20259;-78
2021/08/28 07:10:51;;;;;;;14.90;13.80;;;15.40;99.90;;;;;;4970381;28;20215;-78
2021/08/28 07:13:18;;;;;;;10.03;9.03;;;15.40;99.90;;;;;;4954088;29;20293;-79
2021/08/28 07:15:45;;;;;;;10.17;8.27;;;15.50;99.90;;;;;;4956243;28;20235;-78
2021/08/28 07:18:17;;;;;;;13.20;12.10;;;15.60;99.90;;;;;;4954312;29;20214;-78
2021/08/28 07:20:44;;;;;;;10.73;9.73;;;15.70;99.90;;;;;;4954972;28;20237;-79
2021/08/28 07:23:16;;;;;;;14.30;13.30;;;15.80;99.90;;;;;;4955564;29;20745;-78
2021/08/28 07:26:00;;;;;;;13.80;12.70;;;15.80;99.90;;;;;;4947725;29;20229;-78
2021/08/28 07:28:30;;;;;;;12.60;11.70;;;15.70;99.90;;;;;;4949472;28;20286;-79
2021/08/28 07:31:15;;;;;;;14.23;13.17;;;15.60;99.90;;;;;;4940506;29;20239;-78
2021/08/28 07:33:50;;;;;;;12.77;11.87;;;15.60;99.90;;;;;;4940541;29;20194;-79
2021/08/28 07:36:17;;;;;;;11.50;10.60;;;15.80;99.90;;;;;;4938913;29;20235;-78
2021/08/28 07:38:46;;;;;;;8.43;7.73;;;15.90;99.90;;;;;;4942264;29;20630;-78
2021/08/28 07:41:14;;;;;;;6.73;6.10;;;16.10;99.90;;;;;;4954385;29;20691;-79
2021/08/28 07:43:42;;;;;;;14.17;13.17;;;16.10;99.90;;;;;;4946856;28;20233;-78
2021/08/28 07:46:09;;;;;;;15.00;13.90;;;16.00;99.90;;;;;;4942576;29;20699;-79
2021/08/28 07:48:39;;;;;;;13.03;11.93;;;16.00;99.90;;;;;;4952014;28;20254;-79
2021/08/28 07:51:07;;;;;;;7.37;6.67;;;16.10;99.90;;;;;;4951326;29;20219;-78
2021/08/28 07:53:35;;;;;;;8.40;7.60;;;16.30;99.90;;;;;;4952962;29;20206;-78
2021/08/28 07:56:04;;;;;;;6.80;5.80;;;16.60;99.90;;;;;;4944994;29;20259;-78
2021/08/28 07:58:34;;;;;;;6.17;5.53;;;17.10;99.90;;;;;;4945263;29;20270;-78
2021/08/28 08:01:02;;;;;;;5.77;5.27;;;17.80;99.90;;;;;;4949634;28;20205;-78
2021/08/28 08:03:41;;;;;;;6.07;5.00;;;17.90;99.90;;;;;;4953186;28;20309;-77
2021/08/28 08:06:20;;;;;;;4.43;4.03;;;17.50;99.90;;;;;;4947589;28;20241;-78
2021/08/28 08:09:06;;;;;;;5.17;4.67;;;17.30;99.90;;;;;;4946474;29;20787;-78
2021/08/28 08:11:39;;;;;;;7.27;6.63;;;17.20;99.90;;;;;;4953237;28;20213;-77
2021/08/28 08:14:19;;;;;;;4.90;4.40;;;17.10;99.90;;;;;;4950272;28;20217;-77
2021/08/28 08:17:09;;;;;;;6.03;5.43;;;16.90;99.90;;;;;;4958673;28;20212;-78
2021/08/28 08:19:54;;;;;;;4.50;4.10;;;16.80;99.90;;;;;;4954370;29;20286;-78
2021/08/28 08:22:40;;;;;;;6.37;5.60;;;16.80;99.90;;;;;;4952725;29;20700;-77
2021/08/28 08:25:29;;;;;;;4.33;3.93;;;16.80;99.90;;;;;;4952584;29;20232;-77
2021/08/28 08:27:59;;;;;;;4.40;3.60;;;17.00;99.90;;;;;;4952936;29;20220;-77
2021/08/28 08:30:36;;;;;;;4.00;3.30;;;17.10;99.90;;;;;;4938856;29;20578;-80
2021/08/28 08:33:16;;;;;;;4.23;3.40;;;17.40;99.90;;;;;;4938333;29;20229;-77
2021/08/28 08:35:43;;;;;;;3.87;3.40;;;17.60;99.90;;;;;;4942460;29;20225;-77
2021/08/28 08:38:10;;;;;;;4.10;3.70;;;17.50;99.90;;;;;;4936369;29;20206;-78
2021/08/28 08:40:37;;;;;;;3.97;3.57;;;17.20;99.90;;;;;;4940741;29;20200;-78
2021/08/28 08:43:07;;;;;;;6.10;5.60;;;16.70;99.90;;;;;;4940171;29;20209;-78
2021/08/28 08:45:36;;;;;;;4.17;3.77;;;16.30;99.90;;;;;;4953202;29;20223;-78
2021/08/28 08:48:03;;;;;;;4.07;3.60;;;16.10;99.90;;;;;;4952827;28;20204;-77
2021/08/28 08:50:31;;;;;;;6.57;6.17;;;15.90;99.90;;;;;;4952006;29;20198;-77
2021/08/28 08:53:02;;;;;;;5.77;3.90;;;15.90;99.90;;;;;;4946212;28;20225;-78
2021/08/28 08:55:43;;;;;;;3.70;3.27;;;15.70;99.90;;;;;;4969236;23;20329;-80
2021/08/28 08:58:11;;;;;;;4.03;3.73;;;15.60;99.90;;;;;;4940791;28;20230;-79
2021/08/28 09:00:39;;;;;;;5.67;5.27;;;15.50;99.90;;;;;;4940824;28;20214;-80
2021/08/28 09:03:36;;;;;;;4.13;3.77;;;15.50;99.90;;;;;;4950089;29;20753;-78
2021/08/28 09:06:05;;;;;;;4.37;3.97;;;15.50;99.90;;;;;;4946387;29;20226;-80
2021/08/28 09:08:37;;;;;;;4.10;3.80;;;15.60;99.90;;;;;;4944436;29;20208;-79
2021/08/28 09:11:04;;;;;;;5.60;3.83;;;15.90;99.90;;;;;;4947193;29;20264;-80
2021/08/28 09:13:31;;;;;;;4.13;3.73;;;16.20;99.90;;;;;;4947565;29;20333;-79
2021/08/28 09:16:02;;;;;;;4.80;3.80;;;16.40;99.90;;;;;;4947341;28;20221;-79
2021/08/28 09:18:29;;;;;;;5.40;3.97;;;16.70;99.90;;;;;;4948978;29;20224;-79
2021/08/28 09:20:57;;;;;;;4.00;3.53;;;17.10;99.90;;;;;;4951499;29;20299;-79
2021/08/28 09:23:24;;;;;;;4.50;3.90;;;17.30;99.90;;;;;;4954713;28;20227;-79
2021/08/28 09:25:53;;;;;;;4.17;3.60;;;17.30;99.90;;;;;;4933782;29;20222;-79
2021/08/28 09:28:32;;;;;;;3.90;3.60;;;17.00;99.90;;;;;;4933324;29;20206;-83
2021/08/28 09:31:03;;;;;;;3.93;3.60;;;16.80;99.90;;;;;;4929328;29;20198;-78
2021/08/28 09:33:34;;;;;;;3.63;3.30;;;16.70;99.90;;;;;;4937103;29;20277;-80
2021/08/28 09:36:02;;;;;;;5.80;3.23;;;16.70;99.90;;;;;;4933150;29;20253;-79
2021/08/28 09:38:39;;;;;;;3.97;3.60;;;16.60;99.90;;;;;;4931511;29;20670;-78
2021/08/28 09:41:06;;;;;;;4.13;3.30;;;16.60;99.90;;;;;;4941711;29;20243;-77
2021/08/28 09:43:34;;;;;;;3.50;3.20;;;16.50;99.90;;;;;;4936138;29;20455;-77
2021/08/28 09:46:09;;;;;;;3.73;3.20;;;16.40;99.90;;;;;;4929702;29;20310;-77
2021/08/28 09:48:39;;;;;;;4.53;2.93;;;16.40;99.90;;;;;;4928349;29;20213;-77
2021/08/28 09:51:10;;;;;;;3.50;3.20;;;16.50;99.90;;;;;;4935826;29;20201;-80
2021/08/28 09:53:39;;;;;;;3.20;3.00;;;16.50;99.90;;;;;;4942343;29;20309;-80
2021/08/28 09:56:07;;;;;;;3.47;3.07;;;16.90;99.90;;;;;;4948843;29;20228;-80
2021/08/28 09:58:34;;;;;;;3.23;2.93;;;17.10;99.90;;;;;;4946939;29;20237;-80
2021/08/28 10:01:04;;;;;;;3.40;2.80;;;17.10;99.90;;;;;;4949695;28;20193;-80
2021/08/28 10:03:32;;;;;;;2.50;2.40;;;17.00;99.90;;;;;;4944506;29;20196;-79
2021/08/28 10:06:00;;;;;;;2.83;2.53;;;17.10;99.90;;;;;;4945036;29;20325;-80
2021/08/28 10:08:30;;;;;;;3.27;3.07;;;17.30;99.90;;;;;;4951914;28;20195;-79
2021/08/28 10:10:57;;;;;;;3.40;3.20;;;17.40;99.90;;;;;;4947915;29;20207;-79
2021/08/28 10:13:25;;;;;;;3.53;3.23;;;17.50;99.90;;;;;;4943977;29;20263;-79
2021/08/28 10:15:52;;;;;;;7.43;6.93;;;17.60;99.90;;;;;;4930846;29;20225;-80
2021/08/28 10:18:22;;;;;;;5.33;5.00;;;17.70;99.90;;;;;;4931804;29;20263;-79
2021/08/28 10:20:52;;;;;;;3.20;2.90;;;17.50;99.90;;;;;;4937865;29;20218;-80
2021/08/28 10:23:22;;;;;;;7.07;6.67;;;17.30;99.90;;;;;;4949901;29;20226;-80
2021/08/28 10:25:50;;;;;;;3.47;2.80;;;17.10;99.90;;;;;;4940621;28;20227;-80
2021/08/28 10:28:19;;;;;;;2.97;2.77;;;16.90;99.90;;;;;;4949746;29;20659;-79
2021/08/28 10:30:47;;;;;;;3.00;2.80;;;16.90;99.90;;;;;;4948885;28;20203;-80
2021/08/28 10:33:14;;;;;;;3.30;3.00;;;16.80;99.90;;;;;;4949615;29;20220;-79
2021/08/28 10:35:42;;;;;;;2.60;2.40;;;16.80;99.90;;;;;;4948970;29;20220;-79
2021/08/28 10:38:13;;;;;;;2.87;2.60;;;16.60;99.90;;;;;;4945042;29;20226;-79
2021/08/28 10:40:42;;;;;;;7.80;7.30;;;16.60;99.90;;;;;;4944729;28;20674;-79
2021/08/28 10:43:10;;;;;;;5.27;4.97;;;16.50;99.90;;;;;;4950318;28;20258;-80
2021/08/28 10:45:39;;;;;;;9.40;8.80;;;16.40;99.90;;;;;;4928546;29;20233;-79
2021/08/28 10:48:48;;;;;;;8.40;7.90;;;16.40;99.90;;;;;;4931786;29;20212;-79
2021/08/28 10:51:25;;;;;;;9.43;8.73;;;16.40;99.90;;;;;;4929107;29;20289;-79
2021/08/28 10:53:54;;;;;;;9.50;8.90;;;16.40;99.90;;;;;;4927987;29;20229;-78
2021/08/28 10:56:34;;;;;;;3.37;3.07;;;16.20;99.90;;;;;;4922593;29;20323;-79
2021/08/28 10:59:17;;;;;;;3.40;3.10;;;16.20;99.90;;;;;;4924412;29;20280;-78
2021/08/28 11:02:08;;;;;;;9.60;9.00;;;16.10;99.90;;;;;;4929056;29;20197;-78
2021/08/28 11:04:40;;;;;;;9.83;9.13;;;16.10;99.90;;;;;;4922429;29;20218;-78
2021/08/28 11:07:26;;;;;;;9.90;9.20;;;16.00;99.90;;;;;;4929414;29;20211;-79
2021/08/28 11:10:19;;;;;;;9.63;9.03;;;15.90;99.90;;;;;;4927157;29;20203;-78
2021/08/28 11:12:49;;;;;;;9.63;9.03;;;15.80;99.90;;;;;;4911849;29;20227;-79
2021/08/28 11:15:44;;;;;;;9.70;9.10;;;15.90;99.90;;;;;;4925308;29;20221;-78
2021/08/28 11:18:14;;;;;;;9.70;9.10;;;15.90;99.90;;;;;;4925443;29;20210;-79
2021/08/28 11:20:43;;;;;;;10.33;9.53;;;15.80;99.90;;;;;;4930889;29;20215;-78
2021/08/28 11:23:13;;;;;;;9.80;9.20;;;15.60;99.90;;;;;;4928167;29;20204;-79
2021/08/28 11:25:41;;;;;;;9.47;8.70;;;15.70;99.90;;;;;;4931558;29;20730;-78
2021/08/28 11:28:11;;;;;;;9.60;8.90;;;15.80;99.90;;;;;;4920454;29;20237;-78
2021/08/28 11:30:53;;;;;;;3.23;2.93;;;15.90;99.90;;;;;;4928915;29;20201;-77
2021/08/28 11:33:24;;;;;;;2.80;2.60;;;15.90;99.90;;;;;;4926146;29;20280;-78
2021/08/28 11:35:53;;;;;;;9.00;8.50;;;16.00;99.90;;;;;;4932889;29;20320;-79
2021/08/28 11:38:32;;;;;;;9.40;8.80;;;16.20;99.90;;;;;;4925082;29;20276;-78
2021/08/28 11:41:07;;;;;;;6.63;6.20;;;16.20;99.90;;;;;;4949027;29;20673;-78
2021/08/28 11:43:36;;;;;;;3.00;2.80;;;16.40;99.90;;;;;;4951052;28;20204;-79
2021/08/28 11:46:05;;;;;;;7.33;6.83;;;16.40;99.90;;;;;;4943424;28;20287;-78
2021/08/28 11:48:34;;;;;;;3.43;3.13;;;16.40;99.90;;;;;;4941448;29;20209;-79
2021/08/28 11:51:01;;;;;;;3.10;2.87;;;16.30;99.90;;;;;;4947452;29;20205;-79
2021/08/28 11:53:30;;;;;;;2.90;2.70;;;16.20;99.90;;;;;;4933367;28;20212;-80
2021/08/28 11:56:09;;;;;;;3.00;2.80;;;16.10;99.90;;;;;;4926759;29;20236;-79
2021/08/28 11:58:54;;;;;;;2.90;2.70;;;16.20;99.90;;;;;;4934668;29;20196;-77
2021/08/28 12:01:30;;;;;;;2.83;2.63;;;16.10;99.90;;;;;;4929719;29;20199;-77
2021/08/28 12:03:58;;;;;;;2.80;2.60;;;16.10;99.90;;;;;;4922304;29;20195;-78
2021/08/28 12:06:26;;;;;;;4.70;3.00;;;16.20;99.90;;;;;;4940431;29;20291;-78
2021/08/28 12:08:55;;;;;;;2.97;2.77;;;16.00;99.90;;;;;;4945459;29;20198;-77
2021/08/28 12:11:23;;;;;;;2.93;2.73;;;16.00;99.90;;;;;;4932543;29;20269;-77
2021/08/28 12:13:52;;;;;;;3.10;2.90;;;16.00;99.90;;;;;;4935212;29;20667;-78
2021/08/28 12:16:23;;;;;;;4.17;3.43;;;16.10;99.90;;;;;;4930793;29;20229;-76
2021/08/28 12:19:10;;;;;;;3.50;3.20;;;16.10;99.90;;;;;;4930805;29;20198;-78
2021/08/28 12:21:39;;;;;;;3.40;3.10;;;16.10;99.90;;;;;;4931069;29;20616;-77
2021/08/28 12:24:19;;;;;;;3.27;3.03;;;16.10;99.90;;;;;;4931086;29;20263;-78
2021/08/28 12:26:50;;;;;;;3.40;3.20;;;16.10;99.90;;;;;;4934284;29;20741;-77
2021/08/28 12:29:27;;;;;;;3.27;2.93;;;16.00;99.90;;;;;;4933109;29;20284;-78
2021/08/28 12:32:00;;;;;;;3.30;3.03;;;16.10;99.90;;;;;;4927007;29;20264;-77
2021/08/28 12:34:30;;;;;;;3.20;2.90;;;16.10;99.90;;;;;;4930075;29;20782;-77
2021/08/28 12:36:58;;;;;;;2.93;2.67;;;16.20;99.90;;;;;;4931051;29;20647;-76
2021/08/28 12:39:28;;;;;;;2.93;2.70;;;16.20;99.90;;;;;;4929575;29;20236;-77
2021/08/28 12:41:55;;;;;;;3.00;2.80;;;16.20;99.90;;;;;;4934293;29;20670;-77
2021/08/28 12:44:23;;;;;;;3.30;3.00;;;16.10;99.90;;;;;;4927940;29;20728;-77
2021/08/28 12:46:52;;;;;;;2.90;2.70;;;16.10;99.90;;;;;;4930537;29;20319;-77
2021/08/28 12:49:20;;;;;;;2.47;2.37;;;16.00;99.90;;;;;;4933948;29;20234;-77
2021/08/28 12:51:53;;;;;;;2.40;2.20;;;16.00;99.90;;;;;;4931273;29;20207;-77
2021/08/28 12:54:22;;;;;;;2.30;2.10;;;16.10;99.90;;;;;;4935834;29;20217;-78
2021/08/28 12:56:52;;;;;;;2.10;2.00;;;16.20;99.90;;;;;;4934503;29;20302;-77
2021/08/28 12:59:21;;;;;;;3.40;3.20;;;16.20;99.90;;;;;;4932094;29;20212;-77
2021/08/28 13:01:53;;;;;;;3.00;2.90;;;16.30;99.90;;;;;;4935923;29;20720;-77
2021/08/28 13:04:23;;;;;;;2.10;2.00;;;16.30;99.90;;;;;;4934023;29;20204;-78
2021/08/28 13:07:14;;;;;;;2.63;2.43;;;16.40;99.90;;;;;;4935019;29;20222;-77
2021/08/28 13:09:53;;;;;;;2.40;2.30;;;16.40;99.90;;;;;;4933365;29;20192;-77
2021/08/28 13:12:39;;;;;;;2.67;2.47;;;16.40;99.90;;;;;;4929871;29;20210;-78
2021/08/28 13:15:08;;;;;;;2.57;2.37;;;16.40;99.90;;;;;;4932092;29;20291;-77